createdAt,value
2018-10-17T00:00:58.863Z,18.19
2018-10-17T00:03:27.395Z,18.18
2018-10-17T00:05:56.448Z,18.17
2018-10-17T00:08:24.969Z,18.15
2018-10-17T00:10:53.489Z,18.14
2018-10-17T00:13:22.048Z,18.13
2018-10-17T00:15:50.482Z,18.12
2018-10-17T00:18:18.959Z,18.10
2018-10-17T00:20:47.861Z,18.07
2018-10-17T00:23:17.083Z,18.04
2018-10-17T00:25:45.500Z,18.03
2018-10-17T00:28:14.165Z,18.02
2018-10-17T00:30:43.183Z,17.99
2018-10-17T00:33:11.615Z,17.97
2018-10-17T00:35:40.279Z,17.94
2018-10-17T00:38:08.736Z,17.93
2018-10-17T00:40:37.422Z,17.91
2018-10-17T00:43:06.056Z,17.89
2018-10-17T00:45:34.542Z,17.85
2018-10-17T00:48:03.193Z,17.84
2018-10-17T00:50:31.697Z,17.82
2018-10-17T00:53:00.181Z,17.80
2018-10-17T00:55:28.898Z,17.78
2018-10-17T00:57:57.445Z,17.77
2018-10-17T01:00:26.086Z,17.76
2018-10-17T01:02:54.643Z,17.74
2018-10-17T01:05:23.687Z,17.70
2018-10-17T01:07:52.102Z,17.70
2018-10-17T01:10:20.760Z,17.71
2018-10-17T01:12:49.313Z,17.70
2018-10-17T01:15:17.932Z,17.70
2018-10-17T01:17:46.364Z,17.68
2018-10-17T01:20:14.849Z,17.67
2018-10-17T01:22:43.454Z,17.64
2018-10-17T01:25:12.095Z,17.62
2018-10-17T01:27:40.721Z,17.59
2018-10-17T01:30:09.229Z,17.58
2018-10-17T01:32:37.865Z,17.54
2018-10-17T01:35:07.571Z,17.52
2018-10-17T01:37:35.947Z,17.52
2018-10-17T01:40:06.559Z,17.50
2018-10-17T01:42:35.045Z,17.49
2018-10-17T01:45:03.780Z,17.48
2018-10-17T01:47:32.228Z,17.47
2018-10-17T01:50:00.757Z,17.48
2018-10-17T01:52:29.328Z,17.46
2018-10-17T01:54:58.006Z,17.46
2018-10-17T01:57:27.049Z,17.45
2018-10-17T01:59:56.347Z,17.42
2018-10-17T02:02:24.895Z,17.40
2018-10-17T02:04:53.493Z,17.38
2018-10-17T02:07:21.863Z,17.36
2018-10-17T02:09:50.548Z,17.34
2018-10-17T02:12:19.023Z,17.33
2018-10-17T02:14:47.463Z,17.32
2018-10-17T02:17:16.068Z,17.29
2018-10-17T02:19:44.636Z,17.28
2018-10-17T02:22:13.764Z,17.28
2018-10-17T02:24:42.218Z,17.28
2018-10-17T02:27:10.740Z,17.25
2018-10-17T02:29:39.888Z,17.22
2018-10-17T02:32:08.423Z,17.19
2018-10-17T02:34:49.029Z,17.19
2018-10-17T02:37:17.519Z,17.16
2018-10-17T02:39:46.067Z,17.17
2018-10-17T02:42:14.411Z,17.15
2018-10-17T02:44:43.488Z,17.15
2018-10-17T02:47:12.239Z,17.13
2018-10-17T02:49:41.180Z,17.11
2018-10-17T02:52:09.833Z,17.06
2018-10-17T02:54:38.288Z,17.03
2018-10-17T02:57:06.890Z,17.03
2018-10-17T02:59:35.486Z,17.03
2018-10-17T03:02:04.073Z,16.97
2018-10-17T03:04:32.530Z,16.95
2018-10-17T03:07:01.033Z,16.94
2018-10-17T03:09:29.724Z,16.91
2018-10-17T03:11:58.157Z,16.90
2018-10-17T03:14:26.747Z,16.87
2018-10-17T03:16:55.258Z,16.87
2018-10-17T03:19:23.945Z,16.86
2018-10-17T03:21:52.598Z,16.86
2018-10-17T03:24:21.846Z,16.87
2018-10-17T03:26:50.440Z,16.86
2018-10-17T03:29:19.372Z,16.85
2018-10-17T03:31:47.851Z,16.86
2018-10-17T03:34:16.906Z,16.84
2018-10-17T03:36:45.378Z,16.83
2018-10-17T03:39:14.011Z,16.82
2018-10-17T03:41:42.458Z,16.81
2018-10-17T03:44:11.148Z,16.80
2018-10-17T03:46:39.824Z,16.79
2018-10-17T03:49:08.759Z,16.78
2018-10-17T03:51:37.247Z,16.75
2018-10-17T03:54:06.000Z,16.72
2018-10-17T03:56:34.652Z,16.69
2018-10-17T03:59:03.286Z,16.67
2018-10-17T04:01:37.139Z,16.66
2018-10-17T04:04:05.725Z,16.64
2018-10-17T04:06:34.626Z,16.61
2018-10-17T04:09:03.354Z,16.60
2018-10-17T04:11:31.796Z,16.59
2018-10-17T04:14:00.341Z,16.59
2018-10-17T04:16:28.918Z,16.59
2018-10-17T04:18:57.489Z,16.56
2018-10-17T04:21:26.068Z,16.39
2018-10-17T04:23:54.505Z,16.35
2018-10-17T04:26:23.308Z,16.34
2018-10-17T04:28:51.880Z,16.33
2018-10-17T04:31:20.647Z,16.32
2018-10-17T04:33:49.232Z,16.34
2018-10-17T04:36:18.062Z,16.35
2018-10-17T04:38:46.767Z,16.39
2018-10-17T04:41:15.554Z,16.40
2018-10-17T04:43:44.305Z,16.38
2018-10-17T04:46:12.814Z,16.33
2018-10-17T04:48:41.328Z,16.31
2018-10-17T04:51:09.885Z,16.33
2018-10-17T04:53:38.415Z,16.33
2018-10-17T04:56:07.164Z,16.35
2018-10-17T04:58:35.746Z,16.33
2018-10-17T05:01:04.173Z,16.28
2018-10-17T05:03:32.652Z,16.24
2018-10-17T05:06:01.441Z,16.20
2018-10-17T05:08:29.904Z,16.21
2018-10-17T05:10:58.489Z,16.23
2018-10-17T05:13:26.959Z,16.23
2018-10-17T05:15:55.623Z,16.22
2018-10-17T05:18:24.043Z,16.20
2018-10-17T05:20:52.634Z,16.17
2018-10-17T05:23:22.305Z,16.18
2018-10-17T05:25:54.888Z,16.18
2018-10-17T05:28:23.479Z,16.17
2018-10-17T05:30:51.940Z,16.16
2018-10-17T05:33:20.449Z,16.16
2018-10-17T05:35:48.997Z,16.14
2018-10-17T05:38:18.061Z,16.15
2018-10-17T05:40:47.090Z,16.13
2018-10-17T05:43:15.770Z,16.11
2018-10-17T05:45:44.387Z,16.11
2018-10-17T05:48:12.943Z,16.12
2018-10-17T05:50:42.363Z,16.13
2018-10-17T05:53:10.994Z,16.12
2018-10-17T05:55:39.685Z,16.12
2018-10-17T05:58:08.240Z,16.12
2018-10-17T06:00:36.788Z,16.12
2018-10-17T06:03:05.748Z,16.10
2018-10-17T06:05:34.205Z,16.09
2018-10-17T06:08:03.679Z,16.09
2018-10-17T06:10:32.237Z,16.08
2018-10-17T06:13:00.743Z,16.08
2018-10-17T06:15:29.148Z,16.05
2018-10-17T06:17:57.732Z,16.04
2018-10-17T06:20:26.302Z,16.05
2018-10-17T06:22:54.816Z,16.04
2018-10-17T06:25:23.451Z,16.05
2018-10-17T06:27:52.147Z,16.04
2018-10-17T06:30:20.746Z,16.05
2018-10-17T06:32:50.393Z,16.05
2018-10-17T06:35:18.999Z,16.06
2018-10-17T06:37:48.433Z,16.03
2018-10-17T06:40:17.035Z,16.02
2018-10-17T06:42:45.560Z,16.01
2018-10-17T06:45:14.130Z,16.02
2018-10-17T06:47:46.323Z,16.01
2018-10-17T06:50:14.801Z,16.01
2018-10-17T06:52:43.443Z,16.01
2018-10-17T06:55:12.047Z,16.01
2018-10-17T06:57:40.509Z,16.02
2018-10-17T07:00:09.868Z,16.04
2018-10-17T07:02:38.330Z,16.06
2018-10-17T07:05:07.791Z,16.08
2018-10-17T07:07:36.216Z,16.08
2018-10-17T07:10:05.662Z,16.10
2018-10-17T07:12:34.969Z,16.11
2018-10-17T07:15:03.637Z,16.11
2018-10-17T07:17:32.265Z,16.12
2018-10-17T07:20:00.865Z,16.12
2018-10-17T07:22:29.476Z,16.12
2018-10-17T07:24:58.175Z,16.14
2018-10-17T07:27:26.868Z,16.17
2018-10-17T07:29:55.401Z,16.19
2018-10-17T07:32:23.750Z,16.22
2018-10-17T07:34:52.297Z,16.23
2018-10-17T07:37:20.836Z,16.23
2018-10-17T07:39:49.500Z,16.27
2018-10-17T07:42:18.716Z,16.27
2018-10-17T07:44:47.353Z,16.28
2018-10-17T07:47:16.047Z,16.31
2018-10-17T07:49:44.673Z,16.33
2018-10-17T07:52:13.646Z,16.32
2018-10-17T07:54:42.198Z,16.32
2018-10-17T07:57:10.968Z,16.31
2018-10-17T07:59:39.717Z,16.33
2018-10-17T08:02:08.243Z,16.33
2018-10-17T08:04:37.028Z,16.35
2018-10-17T08:07:06.556Z,16.39
2018-10-17T08:09:36.453Z,16.46
2018-10-17T08:12:05.409Z,16.51
2018-10-17T08:14:34.730Z,16.57
2018-10-17T08:17:03.235Z,16.66
2018-10-17T08:19:31.738Z,16.70
2018-10-17T08:22:00.305Z,16.73
2018-10-17T08:24:29.158Z,16.72
2018-10-17T08:26:58.067Z,16.74
2018-10-17T08:29:26.705Z,16.77
2018-10-17T08:31:56.038Z,16.86
2018-10-17T08:34:24.536Z,16.93
2018-10-17T08:36:53.360Z,16.96
2018-10-17T08:39:21.601Z,16.98
2018-10-17T08:41:50.148Z,17.01
2018-10-17T08:44:19.097Z,17.10
2018-10-17T08:46:47.655Z,17.19
2018-10-17T08:49:16.400Z,17.28
2018-10-17T08:51:44.856Z,17.36
2018-10-17T08:54:13.512Z,17.45
2018-10-17T08:56:42.088Z,17.56
2018-10-17T08:59:10.696Z,17.67
2018-10-17T09:01:39.216Z,17.73
2018-10-17T09:04:08.056Z,17.81
2018-10-17T09:06:36.541Z,17.86
2018-10-17T09:09:09.298Z,17.95
2018-10-17T09:11:38.401Z,18.08
2018-10-17T09:14:06.997Z,18.20
2018-10-17T09:16:35.486Z,18.30
2018-10-17T09:19:04.052Z,18.39
2018-10-17T09:21:32.760Z,18.42
2018-10-17T09:24:01.469Z,18.48
2018-10-17T09:26:30.331Z,18.61
2018-10-17T09:28:59.202Z,18.75
2018-10-17T09:31:28.967Z,18.87
2018-10-17T09:33:57.473Z,18.99
2018-10-17T09:36:26.123Z,19.04
2018-10-17T09:38:54.879Z,19.14
2018-10-17T09:41:23.605Z,19.28
2018-10-17T09:43:52.692Z,19.40
2018-10-17T09:46:21.452Z,19.51
2018-10-17T09:48:50.776Z,19.61
2018-10-17T09:51:19.409Z,19.75
2018-10-17T09:53:48.032Z,19.81
2018-10-17T09:56:16.537Z,19.77
2018-10-17T09:58:45.091Z,19.88
2018-10-17T10:01:16.609Z,20.07
2018-10-17T10:03:45.201Z,20.15
2018-10-17T10:06:13.908Z,20.28
2018-10-17T10:08:42.812Z,20.45
2018-10-17T10:11:11.441Z,20.50
2018-10-17T10:13:40.041Z,20.62
2018-10-17T10:16:08.568Z,20.66
2018-10-17T10:18:37.353Z,20.70
2018-10-17T10:21:06.744Z,20.74
2018-10-17T10:23:35.309Z,20.91
2018-10-17T10:26:03.664Z,21.05
2018-10-17T10:28:32.403Z,21.25
2018-10-17T10:31:00.873Z,21.44
2018-10-17T10:33:29.532Z,21.45
2018-10-17T10:35:58.389Z,21.45
2018-10-17T10:38:26.899Z,21.51
2018-10-17T10:40:55.602Z,21.49
2018-10-17T10:43:24.108Z,21.68
2018-10-17T10:45:52.613Z,21.83
2018-10-17T10:48:21.107Z,21.82
2018-10-17T10:50:50.014Z,21.82
2018-10-17T10:53:18.487Z,21.94
2018-10-17T10:55:47.168Z,22.11
2018-10-17T10:58:16.491Z,22.26
2018-10-17T11:00:45.257Z,22.29
2018-10-17T11:03:13.905Z,22.42
2018-10-17T11:05:42.472Z,22.65
2018-10-17T11:08:11.133Z,22.85
2018-10-17T11:10:39.780Z,23.07
2018-10-17T11:13:08.628Z,23.04
2018-10-17T11:15:38.133Z,23.07
2018-10-17T11:18:06.671Z,23.16
2018-10-17T11:20:35.142Z,23.41
2018-10-17T11:23:03.863Z,23.71
2018-10-17T11:25:32.538Z,23.97
2018-10-17T11:28:01.415Z,24.28
2018-10-17T11:30:30.381Z,24.61
2018-10-17T11:32:59.974Z,24.85
2018-10-17T11:35:29.675Z,24.97
2018-10-17T11:37:59.068Z,25.05
2018-10-17T11:40:27.458Z,24.95
2018-10-17T11:42:55.986Z,25.08
2018-10-17T11:45:24.696Z,25.27
2018-10-17T11:47:53.430Z,25.47
2018-10-17T11:50:22.067Z,25.75
2018-10-17T11:52:51.147Z,25.88
2018-10-17T11:55:19.837Z,25.51
2018-10-17T11:57:48.515Z,25.41
2018-10-17T12:00:17.252Z,25.50
2018-10-17T12:02:46.491Z,25.91
2018-10-17T12:05:16.757Z,26.18
2018-10-17T12:07:45.312Z,26.24
2018-10-17T12:10:14.657Z,26.28
2018-10-17T12:12:43.270Z,26.33
2018-10-17T12:15:13.468Z,26.23
2018-10-17T12:17:42.410Z,26.24
2018-10-17T12:20:12.886Z,26.42
2018-10-17T12:22:42.126Z,26.65
2018-10-17T12:25:11.747Z,26.90
2018-10-17T12:27:40.481Z,26.97
2018-10-17T12:30:12.058Z,27.14
2018-10-17T12:32:40.825Z,27.29
2018-10-17T12:35:09.738Z,27.48
2018-10-17T12:37:38.468Z,27.52
2018-10-17T12:40:08.642Z,27.61
2018-10-17T12:42:37.435Z,27.53
2018-10-17T12:45:07.078Z,27.63
2018-10-17T12:47:35.990Z,27.79
2018-10-17T12:50:04.785Z,28.01
2018-10-17T12:52:33.318Z,28.05
2018-10-17T12:55:01.883Z,27.81
2018-10-17T12:57:31.288Z,27.38
2018-10-17T13:00:00.869Z,27.46
2018-10-17T13:02:30.116Z,27.73
2018-10-17T13:04:58.743Z,27.88
2018-10-17T13:07:27.481Z,27.96
2018-10-17T13:09:56.104Z,27.79
2018-10-17T13:12:24.708Z,27.69
2018-10-17T13:14:53.356Z,27.85
2018-10-17T13:17:21.878Z,27.96
2018-10-17T13:19:50.707Z,27.83
2018-10-17T13:22:19.371Z,27.79
2018-10-17T13:24:48.094Z,27.80
2018-10-17T13:27:16.944Z,27.96
2018-10-17T13:29:45.565Z,27.99
2018-10-17T13:32:14.012Z,27.92
2018-10-17T13:34:43.600Z,27.66
2018-10-17T13:37:12.271Z,27.36
2018-10-17T13:39:40.733Z,27.31
2018-10-17T13:42:10.016Z,27.17
2018-10-17T13:44:39.227Z,27.26
2018-10-17T13:47:08.147Z,27.40
2018-10-17T13:49:37.147Z,27.42
2018-10-17T13:52:05.843Z,27.50
2018-10-17T13:54:34.651Z,27.93
2018-10-17T13:57:03.367Z,28.28
2018-10-17T13:59:31.930Z,28.28
2018-10-17T14:02:00.557Z,28.40
2018-10-17T14:04:29.496Z,28.07
2018-10-17T14:06:58.268Z,27.54
2018-10-17T14:09:27.078Z,27.13
2018-10-17T14:11:55.843Z,26.83
2018-10-17T14:14:24.765Z,26.53
2018-10-17T14:16:53.329Z,26.41
2018-10-17T14:19:22.446Z,26.28
2018-10-17T14:21:51.115Z,26.16
2018-10-17T14:24:19.669Z,25.92
2018-10-17T14:26:48.397Z,25.83
2018-10-17T14:29:16.870Z,25.77
2018-10-17T14:31:45.346Z,25.61
2018-10-17T14:34:13.852Z,25.37
2018-10-17T14:36:42.359Z,25.10
2018-10-17T14:39:12.924Z,25.00
2018-10-17T14:41:41.845Z,24.98
2018-10-17T14:44:10.581Z,24.98
2018-10-17T14:46:39.213Z,24.93
2018-10-17T14:49:07.788Z,24.67
2018-10-17T14:51:36.504Z,24.60
2018-10-17T14:54:05.042Z,24.64
2018-10-17T14:56:33.523Z,24.57
2018-10-17T14:59:02.361Z,24.43
2018-10-17T15:01:31.243Z,24.19
2018-10-17T15:04:00.290Z,24.16
2018-10-17T15:06:28.895Z,24.12
2018-10-17T15:08:57.573Z,24.13
2018-10-17T15:11:26.218Z,24.10
2018-10-17T15:13:55.463Z,24.09
2018-10-17T15:16:24.188Z,24.01
2018-10-17T15:18:52.757Z,23.98
2018-10-17T15:21:21.294Z,23.92
2018-10-17T15:23:49.920Z,23.85
2018-10-17T15:26:18.428Z,23.75
2018-10-17T15:28:46.896Z,23.63
2018-10-17T15:31:15.581Z,23.45
2018-10-17T15:33:44.293Z,23.31
2018-10-17T15:36:13.116Z,23.29
2018-10-17T15:38:42.313Z,23.34
2018-10-17T15:41:11.166Z,23.38
2018-10-17T15:43:40.008Z,23.40
2018-10-17T15:46:08.907Z,23.33
2018-10-17T15:48:37.589Z,23.25
2018-10-17T15:51:06.657Z,23.14
2018-10-17T15:53:35.639Z,23.09
2018-10-17T15:56:04.505Z,22.99
2018-10-17T15:58:33.265Z,22.97
2018-10-17T16:01:02.485Z,22.92
2018-10-17T16:03:31.184Z,22.67
2018-10-17T16:05:59.978Z,22.60
2018-10-17T16:08:28.604Z,22.61
2018-10-17T16:10:57.457Z,22.58
2018-10-17T16:13:26.571Z,22.49
2018-10-17T16:15:55.244Z,22.39
2018-10-17T16:18:24.727Z,22.36
2018-10-17T16:20:53.697Z,22.34
2018-10-17T16:23:22.404Z,22.30
2018-10-17T16:25:51.263Z,22.25
2018-10-17T16:28:19.841Z,22.15
2018-10-17T16:30:49.072Z,22.08
2018-10-17T16:33:18.553Z,21.95
2018-10-17T16:35:47.400Z,21.85
2018-10-17T16:38:16.195Z,21.77
2018-10-17T16:40:45.136Z,21.73
2018-10-17T16:43:13.832Z,21.70
2018-10-17T16:45:42.463Z,21.67
2018-10-17T16:48:11.868Z,21.64
2018-10-17T16:50:40.459Z,21.49
2018-10-17T16:53:09.019Z,21.41
2018-10-17T16:55:37.629Z,21.32
2018-10-17T16:58:06.620Z,21.26
2018-10-17T17:00:35.669Z,21.21
2018-10-17T17:03:04.381Z,21.18
2018-10-17T17:05:32.863Z,21.14
2018-10-17T17:08:01.597Z,21.00
2018-10-17T17:10:30.993Z,20.80
2018-10-17T17:12:59.744Z,20.69
2018-10-17T17:15:28.257Z,20.62
2018-10-17T17:17:57.181Z,20.50
2018-10-17T17:20:25.823Z,20.46
2018-10-17T17:22:54.489Z,20.34
2018-10-17T17:25:23.102Z,20.36
2018-10-17T17:27:51.895Z,20.32
2018-10-17T17:30:20.606Z,20.31
2018-10-17T17:32:49.594Z,20.27
2018-10-17T17:37:47.990Z,20.10
2018-10-17T17:40:23.523Z,20.06
2018-10-17T17:42:52.170Z,19.99
2018-10-17T17:45:20.676Z,19.95
2018-10-17T17:47:49.371Z,19.91
2018-10-17T17:50:17.973Z,19.85
2018-10-17T17:52:46.780Z,19.82
2018-10-17T17:55:15.345Z,19.65
2018-10-17T17:57:44.779Z,19.51
2018-10-17T18:00:13.293Z,19.47
2018-10-17T18:02:42.810Z,19.34
2018-10-17T18:05:11.450Z,19.26
2018-10-17T18:07:40.147Z,19.22
2018-10-17T18:10:08.889Z,19.12
2018-10-17T18:12:38.024Z,19.15
2018-10-17T18:15:07.403Z,19.15
2018-10-17T18:17:36.042Z,19.18
2018-10-17T18:20:04.832Z,19.23
2018-10-17T18:22:33.323Z,19.19
2018-10-17T18:25:01.792Z,19.16
2018-10-17T18:27:30.357Z,19.17
2018-10-17T18:29:59.534Z,19.07
2018-10-17T18:32:28.248Z,18.96
2018-10-17T18:35:12.974Z,18.86
2018-10-17T18:40:52.818Z,18.74
2018-10-17T18:44:03.270Z,18.74
2018-10-17T18:49:24.348Z,18.60
2018-10-17T18:52:05.748Z,18.68
2018-10-17T18:54:50.277Z,18.56
2018-10-17T18:57:33.140Z,18.48
2018-10-17T19:00:10.672Z,18.50
2018-10-17T19:02:56.541Z,18.48
2018-10-17T19:05:41.629Z,18.46
2018-10-17T19:08:36.308Z,18.52
2018-10-17T19:11:14.315Z,18.45
2018-10-17T19:13:50.269Z,18.44
2018-10-17T19:16:26.718Z,18.40
2018-10-17T19:19:01.526Z,18.40
2018-10-17T19:21:39.759Z,18.48
2018-10-17T19:26:56.504Z,18.32
2018-10-17T19:32:19.635Z,18.21
2018-10-17T19:35:01.335Z,18.21
2018-10-17T19:37:37.589Z,18.18
2018-10-17T19:40:11.426Z,18.14
2018-10-17T19:42:42.544Z,18.13
2018-10-17T19:45:16.741Z,18.14
2018-10-17T19:47:45.194Z,18.16
2018-10-17T19:50:13.672Z,18.13
2018-10-17T19:52:42.191Z,18.07
2018-10-17T19:55:11.266Z,17.94
2018-10-17T19:57:39.973Z,17.86
2018-10-17T20:00:11.049Z,17.84
2018-10-17T20:02:39.830Z,17.87
2018-10-17T20:05:09.065Z,17.85
2018-10-17T20:07:37.679Z,17.83
2018-10-17T20:10:08.332Z,17.75
2018-10-17T20:12:37.624Z,17.80
2018-10-17T20:15:07.511Z,17.74
2018-10-17T20:17:36.072Z,17.69
2018-10-17T20:20:05.234Z,17.68
2018-10-17T20:22:33.944Z,17.62
2018-10-17T20:25:02.546Z,17.57
2018-10-17T20:27:31.093Z,17.52
2018-10-17T20:29:59.708Z,17.46
2018-10-17T20:32:29.324Z,17.44
2018-10-17T20:34:58.221Z,17.40
2018-10-17T20:37:27.597Z,17.36
2018-10-17T20:39:56.381Z,17.33
2018-10-17T20:42:25.739Z,17.34
2018-10-17T20:44:54.463Z,17.31
2018-10-17T20:47:23.231Z,17.35
2018-10-17T20:49:53.280Z,17.33
2018-10-17T20:52:21.868Z,17.33
2018-10-17T20:54:50.458Z,17.29
2018-10-17T20:57:19.064Z,17.25
2018-10-17T20:59:47.698Z,17.25
2018-10-17T21:02:16.247Z,17.18
2018-10-17T21:04:44.822Z,17.20
2018-10-17T21:07:13.626Z,17.24
2018-10-17T21:09:42.400Z,17.21
2018-10-17T21:12:10.943Z,17.10
2018-10-17T21:14:39.821Z,16.96
2018-10-17T21:17:08.450Z,16.93
2018-10-17T21:19:37.037Z,16.95
2018-10-17T21:22:05.852Z,17.02
2018-10-17T21:24:34.409Z,17.00
2018-10-17T21:27:03.116Z,16.90
2018-10-17T21:29:31.717Z,16.81
2018-10-17T21:32:00.424Z,16.80
2018-10-17T21:34:29.730Z,16.82
2018-10-17T21:36:58.205Z,16.72
2018-10-17T21:39:27.652Z,16.58
2018-10-17T21:41:56.801Z,16.52
2018-10-17T21:44:25.508Z,16.53
2018-10-17T21:46:54.084Z,16.54
2018-10-17T21:49:22.881Z,16.55
2018-10-17T21:51:51.453Z,16.56
2018-10-17T21:54:20.139Z,16.60
2018-10-17T21:56:48.777Z,16.61
2018-10-17T21:59:17.268Z,16.67
2018-10-17T22:21:55.115Z,16.19
2018-10-17T22:24:23.562Z,16.24
2018-10-17T22:26:52.259Z,16.30
2018-10-17T22:29:20.824Z,16.27
2018-10-17T22:31:49.478Z,16.19
2018-10-17T22:34:18.359Z,16.16
2018-10-17T22:36:47.428Z,16.14
2018-10-17T22:39:16.091Z,16.05
2018-10-17T22:41:45.791Z,16.05
2018-10-17T22:44:14.537Z,16.04
2018-10-17T22:46:43.995Z,16.01
2018-10-17T22:49:12.580Z,15.91
2018-10-17T22:51:41.185Z,15.93
2018-10-17T22:54:09.888Z,16.01
2018-10-17T22:56:39.436Z,16.00
2018-10-17T22:59:08.103Z,15.96
2018-10-17T23:01:37.110Z,15.95
2018-10-17T23:04:06.845Z,15.91
2018-10-17T23:06:35.335Z,15.82
2018-10-17T23:09:06.620Z,15.75
2018-10-17T23:11:35.229Z,15.71
2018-10-17T23:14:04.463Z,15.70
2018-10-17T23:16:32.965Z,15.76
2018-10-17T23:19:01.593Z,15.77
2018-10-17T23:21:30.034Z,15.80
2018-10-17T23:23:58.948Z,15.70
2018-10-17T23:26:27.594Z,15.67
2018-10-17T23:28:56.075Z,15.58
2018-10-17T23:31:25.420Z,15.48
2018-10-17T23:33:54.390Z,15.49
2018-10-17T23:36:23.294Z,15.40
2018-10-17T23:38:52.253Z,15.43
2018-10-17T23:41:21.379Z,15.47
2018-10-17T23:43:49.844Z,15.39
2018-10-17T23:46:18.380Z,15.38
2018-10-17T23:48:46.810Z,15.34
2018-10-17T23:51:15.278Z,15.31
2018-10-17T23:53:43.851Z,15.30
2018-10-17T23:56:13.125Z,15.35
2018-10-17T23:58:41.490Z,15.29
